createdAt,value
2022-10-25T00:01:23.617Z,0.32
2022-10-25T00:03:50.365Z,4.60
2022-10-25T00:06:17.171Z,4.18
2022-10-25T00:08:44.231Z,3.22
2022-10-25T00:11:18.012Z,1.15
2022-10-25T00:13:44.680Z,7.75
2022-10-25T00:16:17.035Z,1.23
2022-10-25T00:18:43.667Z,1.20
2022-10-25T00:21:10.535Z,3.55
2022-10-25T00:23:37.133Z,6.10
2022-10-25T00:26:08.816Z,4.22
2022-10-25T00:28:35.769Z,1.15
2022-10-25T00:31:04.450Z,7.85
2022-10-25T00:33:32.448Z,4.80
2022-10-25T00:36:28.724Z,5.70
2022-10-25T00:38:58.188Z,2.35
2022-10-25T00:41:28.366Z,1.65
2022-10-25T00:44:16.329Z,3.13
2022-10-25T00:46:44.730Z,4.88
2022-10-25T00:49:17.472Z,2.60
2022-10-25T00:51:49.843Z,0.68
2022-10-25T00:54:26.542Z,0.57
2022-10-25T00:56:54.674Z,2.60
2022-10-25T00:59:25.582Z,1.95
2022-10-25T01:01:56.041Z,1.70
2022-10-25T01:04:27.584Z,3.08
2022-10-25T01:06:54.611Z,2.80
2022-10-25T01:09:28.694Z,4.55
2022-10-25T01:11:56.588Z,2.67
2022-10-25T01:14:23.700Z,6.95
2022-10-25T01:16:59.464Z,1.10
2022-10-25T01:19:52.290Z,1.20
2022-10-25T01:22:54.019Z,0.93
2022-10-25T01:25:38.761Z,2.10
2022-10-25T01:28:12.659Z,5.30
2022-10-25T01:31:12.080Z,4.05
2022-10-25T01:34:07.141Z,7.05
2022-10-25T01:36:41.588Z,1.67
2022-10-25T01:39:30.552Z,1.77
2022-10-25T01:42:24.234Z,8.20
2022-10-25T01:44:56.753Z,4.30
2022-10-25T01:47:36.577Z,1.83
2022-10-25T01:50:08.841Z,4.82
2022-10-25T01:52:35.440Z,6.07
2022-10-25T01:55:02.837Z,3.13
2022-10-25T01:57:32.157Z,1.42
2022-10-25T02:00:12.254Z,2.05
2022-10-25T02:03:15.805Z,1.88
2022-10-25T02:05:42.298Z,4.47
2022-10-25T02:08:34.728Z,3.78
2022-10-25T02:11:01.232Z,3.92
2022-10-25T02:13:31.442Z,4.13
2022-10-25T02:16:07.927Z,2.30
2022-10-25T02:18:38.756Z,5.82
2022-10-25T02:21:06.397Z,5.13
2022-10-25T02:23:37.773Z,1.77
2022-10-25T02:26:07.501Z,3.92
2022-10-25T02:31:04.020Z,1.50
2022-10-25T02:33:30.619Z,11.93
2022-10-25T02:36:06.437Z,2.60
2022-10-25T02:38:34.281Z,4.80
2022-10-25T02:41:03.425Z,2.40
2022-10-25T02:47:42.247Z,3.03
2022-10-25T02:50:09.192Z,11.70
2022-10-25T02:52:35.830Z,2.10
2022-10-25T02:55:02.524Z,2.55
2022-10-25T02:57:33.947Z,1.70
2022-10-25T03:00:00.694Z,4.78
2022-10-25T03:02:27.942Z,2.72
2022-10-25T03:04:54.511Z,3.38
2022-10-25T03:07:21.136Z,3.15
2022-10-25T03:09:47.669Z,8.80
2022-10-25T03:12:14.214Z,8.50
2022-10-25T03:14:40.725Z,4.32
2022-10-25T03:17:08.134Z,4.93
2022-10-25T03:19:34.754Z,1.73
2022-10-25T03:22:01.338Z,4.63
2022-10-25T03:24:27.937Z,4.55
2022-10-25T03:26:54.537Z,9.50
2022-10-25T03:29:21.109Z,3.47
2022-10-25T03:31:47.673Z,5.93
2022-10-25T03:34:14.214Z,2.67
2022-10-25T03:36:40.726Z,6.85
2022-10-25T03:39:07.304Z,4.88
2022-10-25T03:41:33.903Z,3.38
2022-10-25T03:44:00.503Z,1.40
2022-10-25T03:46:27.106Z,8.05
2022-10-25T03:48:53.702Z,6.03
2022-10-25T03:51:20.289Z,3.13
2022-10-25T03:53:46.984Z,4.57
2022-10-25T03:56:13.511Z,4.65
2022-10-25T03:58:40.061Z,6.57
2022-10-25T04:01:09.446Z,6.95
2022-10-25T04:03:36.205Z,2.80
2022-10-25T04:06:02.811Z,6.85
2022-10-25T04:08:29.413Z,5.07
2022-10-25T04:10:56.042Z,3.03
2022-10-25T04:13:22.573Z,5.78
2022-10-25T04:15:49.128Z,3.20
2022-10-25T04:18:15.764Z,7.60
2022-10-25T04:20:42.336Z,6.78
2022-10-25T04:23:08.936Z,3.25
2022-10-25T04:25:35.854Z,6.35
2022-10-25T04:28:02.570Z,4.10
2022-10-25T04:30:29.179Z,4.75
2022-10-25T04:32:57.175Z,3.72
2022-10-25T04:35:24.007Z,13.70
2022-10-25T04:37:51.950Z,2.65
2022-10-25T04:40:22.602Z,4.70
2022-10-25T04:42:51.435Z,2.50
2022-10-25T04:45:18.216Z,4.72
2022-10-25T04:47:44.814Z,10.43
2022-10-25T04:50:11.451Z,6.63
2022-10-25T04:52:38.028Z,3.60
2022-10-25T04:55:05.001Z,8.55
2022-10-25T04:57:31.571Z,9.63
2022-10-25T04:59:58.308Z,3.58
2022-10-25T05:02:25.002Z,5.05
2022-10-25T05:04:51.607Z,4.82
2022-10-25T05:07:19.692Z,9.82
2022-10-25T05:09:47.495Z,5.65
2022-10-25T05:12:14.938Z,3.97
2022-10-25T05:14:41.528Z,6.75
2022-10-25T05:17:08.093Z,9.98
2022-10-25T05:19:34.716Z,3.53
2022-10-25T05:22:01.392Z,5.75
2022-10-25T05:24:28.107Z,6.05
2022-10-25T05:26:54.667Z,8.38
2022-10-25T05:29:21.250Z,6.63
2022-10-25T05:31:47.805Z,4.68
2022-10-25T05:34:14.462Z,6.28
2022-10-25T05:36:41.117Z,5.35
2022-10-25T05:39:07.711Z,6.03
2022-10-25T05:41:36.232Z,4.38
2022-10-25T05:44:04.489Z,4.50
2022-10-25T05:46:31.397Z,5.32
2022-10-25T05:48:59.466Z,5.78
2022-10-25T05:51:32.836Z,19.88
2022-10-25T05:54:02.978Z,12.15
2022-10-25T05:56:31.169Z,3.50
2022-10-25T05:58:57.942Z,15.90
2022-10-25T06:01:26.603Z,5.60
2022-10-25T06:03:55.477Z,6.03
2022-10-25T06:06:23.071Z,7.43
2022-10-25T06:08:50.379Z,4.90
2022-10-25T06:11:18.914Z,10.27
2022-10-25T06:13:45.790Z,5.25
2022-10-25T06:16:14.708Z,4.95
2022-10-25T06:18:41.704Z,13.68
2022-10-25T06:21:14.135Z,4.25
2022-10-25T06:23:41.894Z,8.43
2022-10-25T06:26:14.167Z,8.98
2022-10-25T06:28:41.625Z,6.53
2022-10-25T06:31:12.667Z,10.18
2022-10-25T06:33:40.098Z,9.52
2022-10-25T06:36:10.505Z,12.77
2022-10-25T06:38:37.037Z,14.45
2022-10-25T06:41:06.046Z,14.77
2022-10-25T06:43:34.847Z,11.10
2022-10-25T06:46:19.629Z,4.88
2022-10-25T06:48:46.179Z,9.38
2022-10-25T06:51:12.910Z,7.63
2022-10-25T06:53:39.714Z,7.47
2022-10-25T06:56:14.407Z,8.88
2022-10-25T06:58:42.151Z,5.80
2022-10-25T07:01:12.233Z,10.45
2022-10-25T07:03:39.125Z,10.65
2022-10-25T07:06:11.238Z,11.52
2022-10-25T07:08:40.212Z,5.97
2022-10-25T07:11:07.832Z,10.18
2022-10-25T07:13:34.731Z,11.48
2022-10-25T07:16:03.313Z,8.25
2022-10-25T07:18:30.979Z,7.32
2022-10-25T07:21:02.637Z,4.97
2022-10-25T07:23:30.448Z,6.72
2022-10-25T07:25:58.246Z,8.25
2022-10-25T07:28:25.298Z,11.02
2022-10-25T07:30:51.945Z,12.75
2022-10-25T07:33:20.287Z,5.78
2022-10-25T07:36:09.623Z,12.18
2022-10-25T07:38:37.745Z,11.00
2022-10-25T07:41:04.834Z,12.57
2022-10-25T07:43:31.564Z,7.90
2022-10-25T07:45:58.563Z,10.93
2022-10-25T07:48:25.252Z,9.68
2022-10-25T07:50:52.092Z,8.43
2022-10-25T07:53:19.035Z,9.32
2022-10-25T07:55:52.914Z,8.88
2022-10-25T07:58:19.705Z,5.15
2022-10-25T08:00:47.037Z,7.50
2022-10-25T08:03:15.474Z,19.60
2022-10-25T08:05:47.258Z,7.88
2022-10-25T08:08:14.691Z,7.07
2022-10-25T08:10:43.410Z,10.27
2022-10-25T08:13:10.567Z,11.80
2022-10-25T08:15:37.250Z,12.18
2022-10-25T08:18:04.628Z,5.38
2022-10-25T08:20:49.643Z,6.00
2022-10-25T08:23:18.035Z,6.55
2022-10-25T08:25:45.484Z,6.55
2022-10-25T08:28:12.109Z,6.30
2022-10-25T08:30:40.955Z,8.32
2022-10-25T08:33:11.350Z,22.07
2022-10-25T08:35:39.130Z,12.35
2022-10-25T08:38:05.863Z,19.30
2022-10-25T08:40:40.742Z,11.43
2022-10-25T08:43:17.069Z,11.35
2022-10-25T08:46:00.248Z,20.65
2022-10-25T08:48:32.647Z,7.55
2022-10-25T08:51:12.138Z,13.05
2022-10-25T08:53:43.755Z,9.75
2022-10-25T08:56:17.575Z,9.15
2022-10-25T08:59:05.069Z,6.25
2022-10-25T09:01:40.691Z,8.40
2022-10-25T09:04:10.855Z,9.85
2022-10-25T09:06:48.450Z,7.82
2022-10-25T09:09:43.242Z,8.43
2022-10-25T09:12:23.849Z,7.80
2022-10-25T09:15:08.568Z,6.05
2022-10-25T09:17:50.178Z,8.25
2022-10-25T09:20:21.824Z,6.85
2022-10-25T09:23:00.659Z,9.55
2022-10-25T09:25:42.002Z,17.80
2022-10-25T09:28:17.139Z,4.20
2022-10-25T09:30:44.620Z,10.48
2022-10-25T09:33:14.024Z,6.63
2022-10-25T09:35:45.384Z,4.82
2022-10-25T09:38:20.685Z,8.15
2022-10-25T09:40:56.778Z,4.00
2022-10-25T09:43:32.479Z,11.00
2022-10-25T09:46:04.829Z,10.45
2022-10-25T09:48:46.636Z,9.05
2022-10-25T09:51:29.728Z,4.38
2022-10-25T09:53:57.761Z,6.78
2022-10-25T09:56:24.349Z,8.48
2022-10-25T09:58:51.104Z,5.57
2022-10-25T10:01:24.747Z,13.45
2022-10-25T10:03:54.874Z,4.85
2022-10-25T10:06:32.193Z,4.88
2022-10-25T10:09:05.878Z,6.32
2022-10-25T10:11:33.825Z,7.38
2022-10-25T10:14:09.888Z,13.57
2022-10-25T10:16:43.737Z,8.00
2022-10-25T10:19:19.449Z,9.77
2022-10-25T10:21:49.204Z,13.93
2022-10-25T10:24:42.033Z,7.30
2022-10-25T10:27:21.086Z,34.47
2022-10-25T10:30:01.867Z,15.98
2022-10-25T10:32:36.880Z,7.03
2022-10-25T10:35:06.498Z,13.50
2022-10-25T10:37:34.405Z,8.75
2022-10-25T10:40:02.367Z,6.10
2022-10-25T10:42:35.457Z,5.80
2022-10-25T10:45:04.180Z,45.90
2022-10-25T10:47:35.386Z,35.88
2022-10-25T10:50:22.096Z,7.80
2022-10-25T10:53:02.077Z,10.45
2022-10-25T10:55:32.468Z,5.40
2022-10-25T10:58:06.851Z,10.38
2022-10-25T11:00:34.930Z,8.35
2022-10-25T11:03:02.924Z,5.68
2022-10-25T11:05:35.022Z,8.85
2022-10-25T11:08:03.321Z,10.05
2022-10-25T11:10:32.843Z,6.85
2022-10-25T11:13:10.304Z,11.05
2022-10-25T11:15:51.941Z,5.85
2022-10-25T11:18:43.402Z,6.55
2022-10-25T11:21:38.121Z,9.25
2022-10-25T11:24:26.824Z,15.30
2022-10-25T11:27:12.574Z,9.80
2022-10-25T11:29:57.588Z,5.85
2022-10-25T11:32:51.213Z,7.88
2022-10-25T11:35:33.484Z,15.90
2022-10-25T11:38:30.007Z,7.22
2022-10-25T11:41:15.095Z,4.63
2022-10-25T11:43:47.764Z,6.05
2022-10-25T11:46:45.183Z,8.93
2022-10-25T11:49:46.993Z,13.98
2022-10-25T11:52:44.345Z,10.23
2022-10-25T11:55:32.879Z,7.55
2022-10-25T11:58:25.638Z,10.15
2022-10-25T12:00:55.358Z,7.30
2022-10-25T12:06:22.732Z,5.30
2022-10-25T12:09:13.093Z,9.48
2022-10-25T12:11:46.788Z,6.60
2022-10-25T12:14:18.636Z,6.60
2022-10-25T12:16:46.083Z,3.33
2022-10-25T12:19:28.181Z,7.95
2022-10-25T12:22:01.592Z,7.40
2022-10-25T12:24:39.172Z,5.82
2022-10-25T12:27:08.611Z,4.57
2022-10-25T12:29:46.036Z,6.95
2022-10-25T12:32:21.612Z,6.18
2022-10-25T12:34:51.117Z,6.70
2022-10-25T12:37:32.283Z,4.50
2022-10-25T12:39:59.292Z,14.65
2022-10-25T12:42:43.771Z,9.23
2022-10-25T12:45:31.775Z,8.73
2022-10-25T12:48:20.720Z,6.43
2022-10-25T12:51:19.083Z,6.88
2022-10-25T12:54:08.109Z,2.83
2022-10-25T12:56:53.625Z,10.95
2022-10-25T12:59:38.961Z,5.70
2022-10-25T13:02:33.575Z,7.78
2022-10-25T13:05:24.951Z,7.43
2022-10-25T13:07:54.581Z,5.43
2022-10-25T13:10:23.991Z,10.07
2022-10-25T13:15:33.511Z,14.90
2022-10-25T13:18:06.250Z,14.32
2022-10-25T13:20:39.063Z,10.13
2022-10-25T13:23:42.607Z,6.43
2022-10-25T13:26:15.284Z,3.35
2022-10-25T13:28:52.977Z,9.13
2022-10-25T13:31:34.955Z,6.22
2022-10-25T13:34:13.812Z,6.38
2022-10-25T13:36:57.505Z,11.57
2022-10-25T13:39:31.949Z,7.63
2022-10-25T13:42:10.691Z,4.40
2022-10-25T13:44:48.760Z,5.27
2022-10-25T13:47:44.348Z,7.90
2022-10-25T13:50:20.058Z,5.68
2022-10-25T13:53:03.175Z,7.03
2022-10-25T13:55:35.356Z,5.18
2022-10-25T13:58:22.120Z,5.80
2022-10-25T14:00:52.952Z,5.15
2022-10-25T14:03:21.243Z,10.95
2022-10-25T14:05:56.398Z,5.63
2022-10-25T14:08:37.990Z,6.93
2022-10-25T14:11:20.493Z,10.00
2022-10-25T14:14:11.371Z,5.25
2022-10-25T14:16:45.627Z,6.68
2022-10-25T14:19:18.414Z,7.28
2022-10-25T14:21:51.158Z,6.70
2022-10-25T14:24:19.552Z,8.25
2022-10-25T14:26:59.491Z,12.70
2022-10-25T14:29:28.914Z,6.77
2022-10-25T14:31:56.792Z,7.03
2022-10-25T14:34:26.070Z,4.60
2022-10-25T14:36:57.736Z,5.57
2022-10-25T14:39:28.026Z,3.72
2022-10-25T14:42:00.549Z,7.25
2022-10-25T14:44:30.207Z,9.93
2022-10-25T14:49:26.136Z,10.18
2022-10-25T14:52:00.733Z,10.23
2022-10-25T14:54:38.215Z,7.80
2022-10-25T14:57:08.328Z,20.15
2022-10-25T14:59:48.106Z,5.30
2022-10-25T15:02:41.166Z,45.47
2022-10-25T15:05:17.300Z,50.50
2022-10-25T15:07:46.954Z,14.80
2022-10-25T15:13:04.012Z,10.90
2022-10-25T15:15:42.202Z,5.72
2022-10-25T15:18:32.637Z,4.78
2022-10-25T15:21:17.683Z,7.13
2022-10-25T15:24:08.581Z,20.17
2022-10-25T15:26:38.176Z,20.90
2022-10-25T15:29:06.193Z,7.57
2022-10-25T15:31:32.958Z,6.50
2022-10-25T15:34:05.297Z,18.30
2022-10-25T15:36:33.370Z,21.90
2022-10-25T15:39:11.441Z,9.60
2022-10-25T15:41:40.985Z,6.80
2022-10-25T15:44:07.563Z,5.55
2022-10-25T15:46:34.977Z,6.55
2022-10-25T15:49:05.188Z,8.93
2022-10-25T15:51:39.458Z,3.58
2022-10-25T15:54:14.643Z,6.55
2022-10-25T15:56:41.650Z,4.97
2022-10-25T15:59:08.291Z,6.75
2022-10-25T16:01:34.994Z,9.55
2022-10-25T16:04:01.709Z,11.05
2022-10-25T16:06:28.369Z,11.55
2022-10-25T16:08:54.927Z,10.38
2022-10-25T16:11:21.672Z,14.35
2022-10-25T16:13:51.668Z,12.20
2022-10-25T16:16:39.928Z,12.93
2022-10-25T16:19:14.759Z,11.35
2022-10-25T16:21:41.425Z,12.85
2022-10-25T16:24:08.354Z,10.82
2022-10-25T16:26:46.732Z,13.30
2022-10-25T16:29:18.732Z,11.75
2022-10-25T16:31:45.583Z,9.45
2022-10-25T16:34:12.827Z,10.52
2022-10-25T16:36:39.461Z,6.32
2022-10-25T16:39:07.639Z,8.73
2022-10-25T16:41:38.461Z,7.55
2022-10-25T16:44:05.680Z,4.35
2022-10-25T16:46:32.310Z,5.43
2022-10-25T16:49:01.838Z,8.15
2022-10-25T16:51:29.037Z,9.75
2022-10-25T16:53:57.220Z,11.75
2022-10-25T16:56:24.249Z,7.20
2022-10-25T16:58:50.918Z,7.50
2022-10-25T17:01:23.010Z,4.95
2022-10-25T17:03:50.921Z,11.25
2022-10-25T17:09:05.967Z,13.93
2022-10-25T17:11:32.737Z,9.32
2022-10-25T17:13:59.490Z,12.48
2022-10-25T17:16:26.149Z,9.98
2022-10-25T17:18:52.929Z,13.02
2022-10-25T17:21:20.184Z,11.02
2022-10-25T17:23:46.869Z,14.82
2022-10-25T17:26:14.234Z,9.85
2022-10-25T17:28:44.029Z,10.00
2022-10-25T17:31:13.044Z,6.65
2022-10-25T17:33:40.663Z,10.25
2022-10-25T17:36:18.220Z,10.80
2022-10-25T17:38:45.279Z,11.70
2022-10-25T17:41:13.338Z,12.98
2022-10-25T17:43:41.858Z,11.05
2022-10-25T17:46:23.472Z,10.85
2022-10-25T17:48:55.088Z,16.02
2022-10-25T17:51:23.214Z,18.92
2022-10-25T17:53:56.462Z,19.40
2022-10-25T17:56:25.578Z,13.05
2022-10-25T17:58:53.613Z,12.25
2022-10-25T18:01:23.188Z,8.57
2022-10-25T18:06:20.151Z,15.88
2022-10-25T18:08:51.762Z,13.75
2022-10-25T18:11:22.172Z,17.35
2022-10-25T18:13:50.626Z,12.60
2022-10-25T18:16:17.902Z,12.43
2022-10-25T18:18:44.501Z,12.05
2022-10-25T18:21:13.763Z,11.30
2022-10-25T18:23:41.584Z,9.50
2022-10-25T18:26:10.983Z,23.67
2022-10-25T18:28:38.437Z,12.73
2022-10-25T18:31:10.034Z,10.30
2022-10-25T18:33:38.637Z,11.55
2022-10-25T18:36:12.268Z,10.50
2022-10-25T18:38:39.001Z,12.40
2022-10-25T18:41:08.051Z,22.00
2022-10-25T18:43:35.637Z,12.07
2022-10-25T18:46:02.273Z,8.25
2022-10-25T18:48:29.284Z,13.88
2022-10-25T18:50:56.081Z,22.85
2022-10-25T18:53:22.902Z,21.98
2022-10-25T18:55:53.339Z,16.80
2022-10-25T18:58:19.946Z,16.80
2022-10-25T19:00:47.009Z,14.82
2022-10-25T19:03:15.733Z,10.57
2022-10-25T19:05:43.119Z,14.77
2022-10-25T19:08:11.189Z,19.33
2022-10-25T19:10:39.295Z,14.18
2022-10-25T19:13:06.703Z,8.50
2022-10-25T19:15:33.840Z,9.63
2022-10-25T19:18:00.850Z,13.68
2022-10-25T19:20:27.466Z,10.27
2022-10-25T19:22:58.414Z,10.70
2022-10-25T19:25:29.712Z,12.20
2022-10-25T19:27:56.892Z,15.23
2022-10-25T19:30:24.546Z,13.18
2022-10-25T19:32:51.340Z,10.57
2022-10-25T19:35:18.752Z,16.88
2022-10-25T19:37:45.579Z,15.23
2022-10-25T19:40:12.655Z,13.43
2022-10-25T19:42:39.550Z,20.65
2022-10-25T19:45:06.609Z,13.77
2022-10-25T19:47:35.726Z,21.00
2022-10-25T19:50:05.451Z,12.15
2022-10-25T19:57:29.179Z,16.85
2022-10-25T19:59:55.813Z,16.88
2022-10-25T20:02:22.824Z,23.17
2022-10-25T20:04:49.758Z,25.67
2022-10-25T20:07:16.858Z,24.40
2022-10-25T20:09:43.936Z,28.60
2022-10-25T20:12:10.777Z,19.17
2022-10-25T20:14:37.732Z,19.17
2022-10-25T20:17:07.464Z,17.52
2022-10-25T20:22:00.606Z,13.00
2022-10-25T20:24:28.516Z,19.35
2022-10-25T20:26:55.229Z,21.20
2022-10-25T20:29:24.036Z,7.03
2022-10-25T20:31:51.827Z,8.40
2022-10-25T20:34:19.821Z,16.13
2022-10-25T20:36:47.890Z,12.30
2022-10-25T20:39:15.296Z,18.52
2022-10-25T20:41:42.157Z,14.82
2022-10-25T20:44:09.288Z,18.38
2022-10-25T20:46:36.101Z,15.20
2022-10-25T20:49:04.883Z,15.73
2022-10-25T20:51:31.584Z,20.17
2022-10-25T20:53:58.201Z,19.38
2022-10-25T20:56:25.480Z,19.90
2022-10-25T20:58:53.733Z,16.00
2022-10-25T21:01:20.479Z,17.85
2022-10-25T21:03:47.289Z,19.02
2022-10-25T21:06:14.429Z,22.63
2022-10-25T21:08:41.566Z,16.80
2022-10-25T21:11:12.385Z,18.67
2022-10-25T21:13:39.646Z,24.13
2022-10-25T21:16:08.876Z,14.32
2022-10-25T21:18:37.133Z,18.27
2022-10-25T21:21:07.133Z,23.95
2022-10-25T21:23:34.156Z,18.88
2022-10-25T21:26:03.153Z,23.30
2022-10-25T21:28:35.240Z,23.02
2022-10-25T21:31:06.697Z,25.67
2022-10-25T21:33:33.523Z,15.57
2022-10-25T21:36:11.007Z,15.38
2022-10-25T21:38:38.149Z,24.42
2022-10-25T21:41:05.806Z,17.35
2022-10-25T21:43:32.622Z,15.43
2022-10-25T21:45:59.302Z,13.40
2022-10-25T21:48:25.988Z,13.35
2022-10-25T21:50:55.895Z,16.17
2022-10-25T21:53:22.517Z,15.55
2022-10-25T21:55:49.213Z,17.92
2022-10-25T21:58:15.903Z,16.08
2022-10-25T22:00:43.297Z,14.68
2022-10-25T22:03:09.920Z,16.00
2022-10-25T22:05:42.994Z,16.95
2022-10-25T22:08:09.601Z,17.83
2022-10-25T22:10:36.368Z,28.02
2022-10-25T22:13:02.975Z,23.77
2022-10-25T22:15:29.647Z,26.35
2022-10-25T22:17:56.299Z,20.70
2022-10-25T22:20:22.800Z,25.48
2022-10-25T22:22:49.582Z,27.10
2022-10-25T22:25:16.400Z,21.65
2022-10-25T22:30:11.075Z,19.10
2022-10-25T22:32:37.707Z,20.58
2022-10-25T22:35:04.420Z,20.52
2022-10-25T22:37:30.988Z,15.20
2022-10-25T22:39:57.562Z,16.05
2022-10-25T22:42:25.437Z,18.40
2022-10-25T22:44:51.997Z,19.88
2022-10-25T22:47:18.624Z,18.52
2022-10-25T22:49:45.256Z,15.43
2022-10-25T22:52:13.674Z,15.77
2022-10-25T22:54:40.303Z,15.52
2022-10-25T22:57:06.944Z,13.60
2022-10-25T22:59:33.567Z,13.38
2022-10-25T23:02:00.116Z,13.60
2022-10-25T23:04:26.745Z,13.90
2022-10-25T23:06:53.409Z,10.00
2022-10-25T23:09:19.985Z,9.52
2022-10-25T23:11:46.633Z,15.25
2022-10-25T23:14:16.567Z,16.83
2022-10-25T23:16:45.348Z,14.35
2022-10-25T23:19:11.930Z,13.23
2022-10-25T23:21:38.789Z,10.93
2022-10-25T23:24:05.849Z,29.55
2022-10-25T23:26:34.706Z,14.95
2022-10-25T23:29:01.454Z,15.30
2022-10-25T23:31:28.940Z,17.17
2022-10-25T23:33:57.471Z,13.10
2022-10-25T23:36:27.001Z,7.13
2022-10-25T23:38:55.502Z,11.82
2022-10-25T23:41:22.810Z,17.85
2022-10-25T23:43:49.889Z,17.08
2022-10-25T23:46:16.541Z,7.68
2022-10-25T23:48:43.175Z,20.45
2022-10-25T23:51:13.210Z,19.83
2022-10-25T23:53:40.294Z,14.95
2022-10-25T23:56:10.141Z,9.57
2022-10-25T23:58:37.862Z,11.60
